Time;durP1;ratioP1;P1;durP2;ratioP2;P2;SDS_P1;SDS_P2;PMS_P1;PMS_P2;Temp;Humidity;BMP_temperature;BMP_pressure;BME280_temperature;BME280_humidity;BME280_pressure;Samples;Min_cycle;Max_cycle;Signal;HPM_P1;HPM_P2
2022/12/21 00:01:26;;;;;;;;;;;23.60;76.40;;;;;;5054406;28;20003;-70
2022/12/21 00:03:54;;;;;;;;;;;23.80;76.30;;;;;;5043769;28;19916;-70
2022/12/21 00:06:22;;;;;;;;;;;23.80;75.80;;;;;;5053026;28;19912;-70
2022/12/21 00:08:49;;;;;;;;;;;24.00;74.80;;;;;;5042148;28;20095;-69
2022/12/21 00:11:16;;;;;;;;;;;24.00;74.30;;;;;;5031545;28;19932;-71
2022/12/21 00:13:43;;;;;;;;;;;24.00;74.60;;;;;;5049150;28;19956;-70
2022/12/21 00:16:11;;;;;;;;;;;23.90;74.30;;;;;;5043579;28;19915;-71
2022/12/21 00:18:38;;;;;;;;;;;23.90;73.90;;;;;;5043458;28;19916;-71
2022/12/21 00:21:06;;;;;;;;;;;23.90;74.10;;;;;;5047800;28;19912;-72
2022/12/21 00:23:33;;;;;;;;;;;23.80;74.60;;;;;;5045919;28;19913;-70
2022/12/21 00:26:00;;;;;;;;;;;23.80;74.50;;;;;;5035887;28;19909;-70
2022/12/21 00:28:28;;;;;;;;;;;23.80;74.90;;;;;;5052060;28;20438;-70
2022/12/21 00:30:54;;;;;;;;;;;23.70;75.40;;;;;;5050977;28;19913;-74
2022/12/21 00:33:21;;;;;;;;;;;23.70;75.20;;;;;;5048628;28;19928;-71
2022/12/21 00:35:49;;;;;;;;;;;23.60;73.80;;;;;;5052442;28;19920;-72
2022/12/21 00:38:16;;;;;;;;;;;23.60;74.20;;;;;;5042631;28;19913;-72
2022/12/21 00:40:43;;;;;;;;;;;23.50;72.80;;;;;;5036811;28;19956;-72
2022/12/21 00:43:10;;;;;;;;;;;23.70;73.80;;;;;;5050478;28;19916;-71
2022/12/21 00:45:37;;;;;;;;;;;23.80;74.70;;;;;;5038018;28;19917;-73
2022/12/21 00:48:05;;;;;;;;;;;23.80;74.50;;;;;;5032850;28;19909;-69
2022/12/21 00:50:34;;;;;;;;;;;23.90;74.70;;;;;;5051023;28;19963;-73
2022/12/21 00:53:01;;;;;;;;;;;24.00;74.50;;;;;;5048215;28;19912;-72
2022/12/21 00:55:28;;;;;;;;;;;24.10;74.00;;;;;;5042656;28;19987;-70
2022/12/21 00:57:54;;;;;;;;;;;24.10;72.70;;;;;;5040170;28;20370;-71
2022/12/21 01:00:21;;;;;;;;;;;24.10;74.20;;;;;;5043380;28;19924;-72
2022/12/21 01:02:48;;;;;;;;;;;24.10;74.40;;;;;;5037170;28;20332;-72
2022/12/21 01:05:14;;;;;;;;;;;24.10;73.90;;;;;;5047616;28;19923;-71
2022/12/21 01:07:41;;;;;;;;;;;24.20;72.70;;;;;;5047965;28;19928;-71
2022/12/21 01:10:08;;;;;;;;;;;24.50;73.50;;;;;;5043225;28;19995;-69
2022/12/21 01:12:35;;;;;;;;;;;24.40;72.60;;;;;;5037730;28;19919;-72
2022/12/21 01:15:02;;;;;;;;;;;24.40;72.80;;;;;;5049438;28;19921;-69
2022/12/21 01:17:28;;;;;;;;;;;24.60;72.80;;;;;;5039908;28;19913;-69
2022/12/21 01:19:55;;;;;;;;;;;24.70;72.30;;;;;;5051386;28;19912;-70
2022/12/21 01:22:21;;;;;;;;;;;24.80;72.10;;;;;;5050446;28;20300;-74
2022/12/21 01:24:48;;;;;;;;;;;24.70;71.70;;;;;;5046259;28;19912;-71
2022/12/21 01:27:15;;;;;;;;;;;24.70;73.80;;;;;;5041030;28;20671;-72
2022/12/21 01:29:41;;;;;;;;;;;24.70;73.90;;;;;;5029121;28;19975;-71
2022/12/21 01:32:08;;;;;;;;;;;24.50;73.10;;;;;;5036902;28;20004;-71
2022/12/21 01:34:35;;;;;;;;;;;24.70;74.70;;;;;;5045387;28;19958;-70
2022/12/21 01:37:01;;;;;;;;;;;24.80;74.20;;;;;;5053312;28;20272;-71
2022/12/21 01:39:29;;;;;;;;;;;25.00;73.30;;;;;;5041615;28;19924;-71
2022/12/21 01:41:56;;;;;;;;;;;25.20;72.80;;;;;;5033741;28;20397;-72
2022/12/21 01:44:41;;;;;;;;;;;25.20;70.70;;;;;;5032513;28;19917;-73
2022/12/21 01:47:12;;;;;;;;;;;25.20;69.80;;;;;;5036501;28;19920;-72
2022/12/21 01:49:38;;;;;;;;;;;25.20;71.70;;;;;;5037426;28;19912;-71
2022/12/21 01:52:07;;;;;;;;;;;25.40;71.60;;;;;;5040742;28;19912;-71
2022/12/21 01:54:36;;;;;;;;;;;25.60;71.70;;;;;;5051365;28;19921;-72
2022/12/21 01:57:04;;;;;;;;;;;25.70;69.70;;;;;;5048867;28;20476;-71
2022/12/21 01:59:33;;;;;;;;;;;25.70;73.00;;;;;;5032592;28;20273;-72
2022/12/21 02:02:03;;;;;;;;;;;25.70;73.70;;;;;;5036970;28;19916;-69
2022/12/21 02:04:30;;;;;;;;;;;25.90;72.60;;;;;;5044286;28;20389;-72
2022/12/21 02:06:58;;;;;;;;;;;25.90;72.50;;;;;;5050436;28;19913;-72
2022/12/21 02:09:26;;;;;;;;;;;26.10;74.00;;;;;;5044488;28;20003;-71
2022/12/21 02:11:53;;;;;;;;;;;26.20;73.20;;;;;;5046918;28;19966;-71
2022/12/21 02:14:20;;;;;;;;;;;26.40;73.70;;;;;;5055957;28;20335;-71
2022/12/21 02:17:04;;;;;;;;;;;26.20;73.70;;;;;;5052856;28;19919;-72
2022/12/21 02:19:49;;;;;;;;;;;26.30;73.00;;;;;;5044465;28;20421;-73
2022/12/21 02:22:35;;;;;;;;;;;26.30;72.70;;;;;;5042635;28;19921;-73
2022/12/21 02:25:20;;;;;;;;;;;25.90;72.30;;;;;;5046810;28;19917;-72
2022/12/21 02:28:09;;;;;;;;;;;26.10;72.70;;;;;;5041855;28;19995;-72
2022/12/21 02:30:48;;;;;;;;;;;26.20;72.50;;;;;;5045394;28;20422;-73
2022/12/21 02:33:41;;;;;;;;;;;26.30;71.10;;;;;;5037393;28;19970;-72
2022/12/21 02:36:16;;;;;;;;;;;26.30;71.00;;;;;;5056445;28;19921;-72
2022/12/21 02:39:02;;;;;;;;;;;26.30;70.70;;;;;;5039623;28;19912;-71
2022/12/21 02:41:34;;;;;;;;;;;26.50;70.50;;;;;;5049780;28;19988;-71
2022/12/21 02:44:14;;;;;;;;;;;26.80;70.30;;;;;;5038932;28;19908;-71
2022/12/21 02:46:59;;;;;;;;;;;26.70;69.40;;;;;;5051815;28;20430;-73
2022/12/21 02:49:25;;;;;;;;;;;26.40;69.90;;;;;;5056156;28;19919;-72
2022/12/21 02:52:02;;;;;;;;;;;26.40;69.30;;;;;;5051157;28;20339;-68
2022/12/21 02:54:29;;;;;;;;;;;26.60;71.50;;;;;;5056358;28;19918;-69
2022/12/21 02:56:55;;;;;;;;;;;26.90;68.10;;;;;;5052792;28;19913;-71
2022/12/21 02:59:26;;;;;;;;;;;27.30;67.50;;;;;;5044812;28;20069;-73
2022/12/21 03:02:05;;;;;;;;;;;27.80;66.90;;;;;;5053266;28;19913;-71
2022/12/21 03:04:41;;;;;;;;;;;28.20;66.80;;;;;;5055890;28;19928;-71
2022/12/21 03:07:22;;;;;;;;;;;28.80;66.10;;;;;;5056619;28;19927;-72
2022/12/21 03:10:06;;;;;;;;;;;29.20;65.50;;;;;;5052257;28;19918;-70
2022/12/21 03:12:41;;;;;;;;;;;29.80;63.70;;;;;;5057868;28;19916;-70
2022/12/21 03:15:14;;;;;;;;;;;30.30;62.30;;;;;;5056222;28;19916;-70
2022/12/21 03:18:00;;;;;;;;;;;29.70;63.80;;;;;;5044723;28;19916;-72
2022/12/21 03:20:53;;;;;;;;;;;29.90;63.10;;;;;;5035471;28;20491;-71
2022/12/21 03:23:32;;;;;;;;;;;30.00;63.00;;;;;;5050682;28;20015;-69
2022/12/21 03:26:04;;;;;;;;;;;31.20;60.70;;;;;;5046099;28;19921;-70
2022/12/21 03:28:33;;;;;;;;;;;31.50;60.60;;;;;;5050169;28;19939;-72
2022/12/21 03:31:03;;;;;;;;;;;31.50;61.50;;;;;;5039157;28;20722;-73
2022/12/21 03:33:33;;;;;;;;;;;32.20;59.80;;;;;;5042038;28;20316;-72
2022/12/21 03:36:19;;;;;;;;;;;32.60;59.00;;;;;;5041570;28;20369;-71
2022/12/21 03:38:49;;;;;;;;;;;33.30;58.30;;;;;;5041270;28;19917;-72
2022/12/21 03:41:36;;;;;;;;;;;34.30;57.10;;;;;;5054796;28;20285;-72
2022/12/21 03:44:04;;;;;;;;;;;34.30;59.00;;;;;;5047975;28;20637;-70
2022/12/21 03:46:38;;;;;;;;;;;34.90;56.50;;;;;;5041680;28;19913;-69
2022/12/21 03:49:12;;;;;;;;;;;35.40;55.30;;;;;;5043103;28;19956;-72
2022/12/21 03:51:43;;;;;;;;;;;34.50;56.10;;;;;;5054947;28;19948;-70
2022/12/21 03:54:20;;;;;;;;;;;34.90;54.70;;;;;;5052579;28;20003;-71
2022/12/21 03:56:48;;;;;;;;;;;35.00;55.50;;;;;;5043969;28;20007;-71
2022/12/21 03:59:16;;;;;;;;;;;34.60;55.60;;;;;;5045423;28;19956;-71
2022/12/21 04:01:47;;;;;;;;;;;36.00;53.80;;;;;;5048747;28;19912;-72
2022/12/21 04:04:20;;;;;;;;;;;36.30;54.20;;;;;;5042122;28;19913;-73
2022/12/21 04:06:48;;;;;;;;;;;36.00;54.90;;;;;;5045481;28;19912;-72
2022/12/21 04:09:15;;;;;;;;;;;35.90;53.20;;;;;;5040908;28;19912;-72
2022/12/21 04:14:27;;;;;;;;;;;34.20;55.50;;;;;;5055106;28;20427;-69
2022/12/21 04:16:54;;;;;;;;;;;33.90;55.00;;;;;;5048952;28;19928;-69
2022/12/21 04:22:05;;;;;;;;;;;34.20;55.80;;;;;;5052172;28;19919;-72
2022/12/21 04:30:01;;;;;;;;;;;32.80;56.10;;;;;;5055197;28;19955;-72
2022/12/21 04:32:28;;;;;;;;;;;33.30;55.30;;;;;;5075718;28;19961;-71
2022/12/21 04:34:55;;;;;;;;;;;33.90;55.60;;;;;;5074419;28;19916;-72
2022/12/21 04:37:35;;;;;;;;;;;34.60;54.20;;;;;;5054860;28;19947;-71
2022/12/21 04:40:03;;;;;;;;;;;35.00;55.60;;;;;;5051386;28;19912;-71
2022/12/21 04:42:29;;;;;;;;;;;35.70;53.70;;;;;;5051760;28;19965;-71
2022/12/21 04:44:56;;;;;;;;;;;36.00;53.80;;;;;;5046638;28;19912;-69
2022/12/21 04:47:23;;;;;;;;;;;36.60;52.90;;;;;;5055507;28;19908;-71
2022/12/21 04:49:50;;;;;;;;;;;36.60;53.30;;;;;;5055012;28;20012;-69
2022/12/21 04:52:16;;;;;;;;;;;36.60;51.60;;;;;;5052917;28;19909;-71
2022/12/21 04:54:43;;;;;;;;;;;37.10;51.80;;;;;;5055299;28;19975;-70
2022/12/21 04:57:10;;;;;;;;;;;36.40;52.30;;;;;;5051491;28;19920;-71
2022/12/21 04:59:36;;;;;;;;;;;35.60;53.80;;;;;;5054445;28;19909;-69
2022/12/21 05:02:03;;;;;;;;;;;35.10;54.10;;;;;;5032469;28;19913;-71
2022/12/21 05:04:30;;;;;;;;;;;36.10;53.40;;;;;;5046069;28;20399;-71
2022/12/21 05:06:56;;;;;;;;;;;35.70;53.40;;;;;;5054878;28;19958;-71
2022/12/21 05:09:25;;;;;;;;;;;36.40;52.00;;;;;;5052845;28;19908;-69
2022/12/21 05:11:52;;;;;;;;;;;35.40;52.50;;;;;;5055447;28;19970;-70
2022/12/21 05:14:19;;;;;;;;;;;35.00;53.20;;;;;;5045813;28;19947;-70
2022/12/21 05:16:46;;;;;;;;;;;34.70;52.90;;;;;;5063645;28;20522;-72
2022/12/21 05:19:13;;;;;;;;;;;34.10;53.30;;;;;;5044939;28;19912;-72
2022/12/21 05:21:40;;;;;;;;;;;33.90;54.90;;;;;;5056493;28;19919;-70
2022/12/21 05:24:07;;;;;;;;;;;32.80;55.20;;;;;;5050343;28;20424;-71
2022/12/21 05:26:33;;;;;;;;;;;32.80;54.80;;;;;;5046294;28;19948;-70
2022/12/21 05:29:00;;;;;;;;;;;32.50;55.80;;;;;;5041000;28;19976;-72
2022/12/21 05:31:27;;;;;;;;;;;32.10;56.60;;;;;;5038167;28;20495;-71
2022/12/21 05:33:53;;;;;;;;;;;32.10;56.50;;;;;;5049076;28;19928;-70
2022/12/21 05:36:20;;;;;;;;;;;32.70;55.50;;;;;;5040120;28;19912;-70
2022/12/21 05:38:47;;;;;;;;;;;32.30;55.70;;;;;;5037986;28;19919;-70
2022/12/21 05:41:14;;;;;;;;;;;32.20;55.50;;;;;;5053388;28;20052;-71
2022/12/21 05:43:41;;;;;;;;;;;31.60;55.50;;;;;;5057478;28;19916;-70
2022/12/21 05:46:09;;;;;;;;;;;31.10;57.20;;;;;;5055400;28;19916;-71
2022/12/21 05:48:38;;;;;;;;;;;31.50;56.30;;;;;;5043634;28;19913;-70
2022/12/21 05:51:11;;;;;;;;;;;30.70;56.80;;;;;;5052368;28;20270;-72
2022/12/21 05:53:40;;;;;;;;;;;29.90;59.80;;;;;;5046000;28;19909;-69
2022/12/21 05:56:07;;;;;;;;;;;29.40;58.80;;;;;;5058462;28;20662;-72
2022/12/21 05:58:34;;;;;;;;;;;28.10;60.40;;;;;;5059021;28;19909;-72
2022/12/21 06:01:02;;;;;;;;;;;27.10;63.40;;;;;;5060634;28;19999;-72
2022/12/21 06:03:29;;;;;;;;;;;27.00;64.10;;;;;;5056110;28;20007;-69
2022/12/21 06:06:06;;;;;;;;;;;26.90;64.70;;;;;;5050743;28;20400;-72
2022/12/21 06:08:32;;;;;;;;;;;27.20;63.70;;;;;;5048003;28;19935;-71
2022/12/21 06:11:15;;;;;;;;;;;27.20;64.30;;;;;;5038479;28;19909;-70
2022/12/21 06:13:42;;;;;;;;;;;26.90;64.70;;;;;;5049203;28;19913;-71
2022/12/21 06:16:10;;;;;;;;;;;26.90;65.60;;;;;;5057915;28;19924;-72
2022/12/21 06:18:37;;;;;;;;;;;27.10;64.80;;;;;;5054315;28;19962;-71
2022/12/21 06:21:04;;;;;;;;;;;27.10;64.80;;;;;;5047558;28;19912;-70
2022/12/21 06:23:31;;;;;;;;;;;27.00;64.40;;;;;;5045086;28;19935;-70
2022/12/21 06:25:59;;;;;;;;;;;26.20;66.00;;;;;;5042438;28;19970;-71
2022/12/21 06:28:26;;;;;;;;;;;26.20;66.40;;;;;;5049003;28;19912;-71
2022/12/21 06:30:53;;;;;;;;;;;26.00;66.90;;;;;;5050515;28;19955;-69
2022/12/21 06:33:21;;;;;;;;;;;25.90;67.60;;;;;;5043222;28;19965;-72
2022/12/21 06:35:48;;;;;;;;;;;26.40;67.90;;;;;;5045783;28;20416;-71
2022/12/21 06:38:14;;;;;;;;;;;26.10;66.60;;;;;;5045570;28;20341;-71
2022/12/21 06:40:41;;;;;;;;;;;26.00;67.40;;;;;;5047991;28;20383;-72
2022/12/21 06:43:07;;;;;;;;;;;26.00;67.80;;;;;;5045186;28;19912;-70
2022/12/21 06:45:34;;;;;;;;;;;25.70;67.50;;;;;;5043375;28;19908;-70
2022/12/21 06:48:01;;;;;;;;;;;25.70;68.10;;;;;;5048602;28;19909;-71
2022/12/21 06:50:27;;;;;;;;;;;25.40;69.80;;;;;;5042588;28;19917;-71
2022/12/21 06:52:54;;;;;;;;;;;25.50;69.20;;;;;;5041585;28;19913;-71
2022/12/21 06:55:21;;;;;;;;;;;25.30;70.20;;;;;;5042189;28;19946;-72
2022/12/21 06:57:47;;;;;;;;;;;25.30;71.50;;;;;;5045282;28;19912;-70
2022/12/21 07:00:14;;;;;;;;;;;24.80;71.80;;;;;;5045582;28;20319;-70
2022/12/21 07:02:42;;;;;;;;;;;24.50;72.50;;;;;;5044757;28;19917;-71
2022/12/21 07:05:09;;;;;;;;;;;24.20;73.10;;;;;;5048180;28;20435;-70
2022/12/21 07:07:35;;;;;;;;;;;23.90;73.60;;;;;;5041527;28;20372;-70
2022/12/21 07:10:02;;;;;;;;;;;23.60;74.80;;;;;;5046969;28;19913;-71
2022/12/21 07:12:29;;;;;;;;;;;23.40;74.70;;;;;;5043274;28;20003;-70
2022/12/21 07:14:55;;;;;;;;;;;23.10;75.70;;;;;;5046894;28;19923;-71
2022/12/21 07:17:22;;;;;;;;;;;23.20;75.40;;;;;;5042306;28;19913;-72
2022/12/21 07:19:48;;;;;;;;;;;23.30;74.60;;;;;;5045472;28;19954;-70
2022/12/21 07:22:15;;;;;;;;;;;23.10;75.50;;;;;;5046975;28;20282;-71
2022/12/21 07:24:42;;;;;;;;;;;23.30;75.50;;;;;;5043594;28;20695;-71
2022/12/21 07:27:08;;;;;;;;;;;23.00;75.70;;;;;;5046934;28;19916;-70
2022/12/21 07:29:35;;;;;;;;;;;22.70;76.90;;;;;;5044840;28;19915;-71
2022/12/21 07:32:02;;;;;;;;;;;22.60;77.80;;;;;;5045228;28;20379;-71
2022/12/21 07:34:28;;;;;;;;;;;22.50;78.40;;;;;;5045951;28;19921;-70
2022/12/21 07:36:55;;;;;;;;;;;22.70;78.00;;;;;;5045005;28;19908;-71
2022/12/21 07:39:21;;;;;;;;;;;22.80;78.00;;;;;;5047161;28;19908;-71
2022/12/21 07:41:48;;;;;;;;;;;22.90;77.50;;;;;;5049673;28;19908;-71
2022/12/21 07:44:15;;;;;;;;;;;23.00;77.30;;;;;;5045779;28;19909;-70
2022/12/21 07:46:41;;;;;;;;;;;23.00;77.00;;;;;;5047324;28;20299;-72
2022/12/21 07:49:08;;;;;;;;;;;22.90;78.30;;;;;;5054346;28;19912;-69
2022/12/21 07:51:35;;;;;;;;;;;23.00;77.40;;;;;;5040097;28;19919;-71
2022/12/21 07:54:01;;;;;;;;;;;22.80;78.30;;;;;;5049697;28;19940;-70
2022/12/21 07:56:28;;;;;;;;;;;22.30;78.90;;;;;;5053555;28;19923;-72
2022/12/21 07:58:54;;;;;;;;;;;22.20;79.00;;;;;;5055263;28;19912;-71
2022/12/21 08:01:21;;;;;;;;;;;22.10;79.60;;;;;;5043990;28;19913;-69
2022/12/21 08:03:48;;;;;;;;;;;22.00;79.80;;;;;;5046593;28;19966;-72
2022/12/21 08:06:15;;;;;;;;;;;21.90;79.80;;;;;;5040363;28;20702;-71
2022/12/21 08:08:42;;;;;;;;;;;21.70;80.80;;;;;;5043965;28;20254;-71
2022/12/21 08:11:15;;;;;;;;;;;21.50;80.70;;;;;;5055914;28;19923;-72
2022/12/21 08:13:42;;;;;;;;;;;21.40;80.90;;;;;;5034310;28;19920;-71
2022/12/21 08:16:10;;;;;;;;;;;21.40;81.30;;;;;;5035994;28;19924;-70
2022/12/21 08:18:37;;;;;;;;;;;21.30;81.30;;;;;;5032893;28;20351;-69
2022/12/21 08:21:04;;;;;;;;;;;21.50;81.50;;;;;;5037866;28;19916;-71
2022/12/21 08:23:31;;;;;;;;;;;21.50;82.90;;;;;;5053529;28;19948;-70
2022/12/21 08:26:04;;;;;;;;;;;21.50;82.50;;;;;;5044158;28;19909;-71
2022/12/21 08:28:31;;;;;;;;;;;21.40;82.40;;;;;;5053195;28;19913;-71
2022/12/21 08:31:24;;;;;;;;;;;21.30;81.90;;;;;;5054284;28;20433;-70
2022/12/21 08:33:51;;;;;;;;;;;21.30;83.30;;;;;;5051642;28;20349;-71
2022/12/21 08:36:22;;;;;;;;;;;21.00;83.90;;;;;;5054105;28;20142;-71
2022/12/21 08:38:51;;;;;;;;;;;20.90;83.60;;;;;;5052549;28;19912;-69
2022/12/21 08:41:18;;;;;;;;;;;20.70;84.80;;;;;;5054666;28;19951;-71
2022/12/21 08:43:45;;;;;;;;;;;20.70;86.30;;;;;;5039329;28;19916;-70
2022/12/21 08:46:12;;;;;;;;;;;20.60;86.90;;;;;;5043867;28;19917;-71
2022/12/21 08:48:39;;;;;;;;;;;20.50;87.80;;;;;;5043340;28;19913;-72
2022/12/21 08:51:09;;;;;;;;;;;20.40;88.70;;;;;;5052706;28;19913;-71
2022/12/21 08:53:36;;;;;;;;;;;20.20;88.60;;;;;;5054252;28;20010;-71
2022/12/21 08:56:04;;;;;;;;;;;20.20;88.10;;;;;;5054131;28;20031;-72
2022/12/21 08:58:31;;;;;;;;;;;20.10;88.40;;;;;;5046182;28;19951;-70
2022/12/21 09:00:58;;;;;;;;;;;20.20;88.10;;;;;;5043980;28;20392;-70
2022/12/21 09:03:26;;;;;;;;;;;20.10;88.40;;;;;;5043712;28;19913;-72
2022/12/21 09:05:56;;;;;;;;;;;20.00;89.00;;;;;;5040980;28;20011;-72
2022/12/21 09:08:24;;;;;;;;;;;19.90;90.00;;;;;;5043296;28;19913;-70
2022/12/21 09:10:58;;;;;;;;;;;19.90;90.30;;;;;;5038697;28;19912;-72
2022/12/21 09:13:25;;;;;;;;;;;19.90;90.50;;;;;;5043193;28;19920;-71
2022/12/21 09:15:52;;;;;;;;;;;19.80;90.40;;;;;;5044636;28;19925;-71
2022/12/21 09:18:18;;;;;;;;;;;19.80;90.70;;;;;;5045118;28;19916;-70
2022/12/21 09:20:45;;;;;;;;;;;19.70;90.80;;;;;;5043341;28;19948;-70
2022/12/21 09:23:13;;;;;;;;;;;19.70;90.80;;;;;;5049604;28;19991;-71
2022/12/21 09:25:40;;;;;;;;;;;19.70;90.90;;;;;;5045798;28;19913;-72
2022/12/21 09:28:07;;;;;;;;;;;19.80;90.90;;;;;;5046731;28;19913;-73
2022/12/21 09:30:33;;;;;;;;;;;19.80;90.70;;;;;;5047750;28;19913;-74
2022/12/21 09:33:00;;;;;;;;;;;19.70;91.00;;;;;;5041345;28;20451;-74
2022/12/21 09:35:27;;;;;;;;;;;19.70;90.80;;;;;;5046608;28;19928;-69
2022/12/21 09:37:54;;;;;;;;;;;19.80;90.90;;;;;;5040438;28;19920;-70
2022/12/21 09:40:21;;;;;;;;;;;19.70;91.00;;;;;;5048037;28;19909;-71
2022/12/21 09:42:47;;;;;;;;;;;19.70;91.00;;;;;;5039706;28;20372;-73
2022/12/21 09:45:26;;;;;;;;;;;19.80;91.20;;;;;;5043386;28;19917;-72
2022/12/21 09:47:56;;;;;;;;;;;19.70;91.30;;;;;;5043011;28;19998;-72
2022/12/21 09:50:27;;;;;;;;;;;19.60;91.20;;;;;;5047126;28;19913;-74
2022/12/21 09:53:18;;;;;;;;;;;19.60;91.60;;;;;;5040002;28;19916;-73
2022/12/21 09:55:46;;;;;;;;;;;19.60;91.60;;;;;;5045618;28;20011;-73
2022/12/21 09:58:15;;;;;;;;;;;19.70;91.70;;;;;;5049679;28;19972;-74
2022/12/21 10:00:43;;;;;;;;;;;19.70;91.50;;;;;;5055713;28;19909;-73
2022/12/21 10:03:28;;;;;;;;;;;19.70;91.50;;;;;;5043944;28;20000;-71
2022/12/21 10:06:05;;;;;;;;;;;19.60;91.40;;;;;;5042107;28;19913;-73
2022/12/21 10:08:47;;;;;;;;;;;19.60;91.40;;;;;;5048171;28;20327;-74
2022/12/21 10:11:33;;;;;;;;;;;19.60;91.30;;;;;;5050846;28;19950;-74
2022/12/21 10:14:13;;;;;;;;;;;19.60;91.50;;;;;;5042893;28;19920;-74
2022/12/21 10:16:45;;;;;;;;;;;19.60;91.40;;;;;;5041765;28;19912;-74
2022/12/21 10:19:38;;;;;;;;;;;19.60;91.70;;;;;;5039100;28;20008;-73
2022/12/21 10:22:05;;;;;;;;;;;19.60;91.60;;;;;;5051669;28;19982;-73
2022/12/21 10:24:44;;;;;;;;;;;19.50;91.50;;;;;;5042982;28;19909;-74
2022/12/21 10:27:14;;;;;;;;;;;19.50;91.90;;;;;;5037148;28;19916;-74
2022/12/21 10:29:42;;;;;;;;;;;19.50;91.80;;;;;;5046215;28;19913;-74
2022/12/21 10:32:11;;;;;;;;;;;19.40;91.40;;;;;;5054719;28;19974;-75
2022/12/21 10:34:46;;;;;;;;;;;19.30;91.70;;;;;;5055639;28;20520;-73
2022/12/21 10:37:14;;;;;;;;;;;19.20;92.00;;;;;;5054872;28;19912;-73
2022/12/21 10:39:41;;;;;;;;;;;19.20;92.30;;;;;;5034401;28;19975;-74
2022/12/21 10:42:18;;;;;;;;;;;19.20;92.30;;;;;;5053152;28;20307;-74
2022/12/21 10:44:46;;;;;;;;;;;19.30;92.40;;;;;;5054407;28;20435;-74
2022/12/21 10:47:14;;;;;;;;;;;19.40;92.60;;;;;;5054185;28;19971;-73
2022/12/21 10:49:43;;;;;;;;;;;19.40;92.50;;;;;;5033563;28;20200;-73
2022/12/21 10:52:27;;;;;;;;;;;19.40;92.80;;;;;;5046045;28;19912;-74
2022/12/21 10:54:54;;;;;;;;;;;19.30;92.50;;;;;;5034388;28;20028;-74
2022/12/21 10:57:25;;;;;;;;;;;19.40;93.00;;;;;;5046207;28;19966;-75
2022/12/21 10:59:52;;;;;;;;;;;19.40;92.80;;;;;;5035495;28;19908;-75
2022/12/21 11:02:51;;;;;;;;;;;19.40;93.10;;;;;;5045034;28;20716;-74
2022/12/21 11:05:30;;;;;;;;;;;19.40;93.10;;;;;;5035748;28;19917;-72
2022/12/21 11:08:16;;;;;;;;;;;19.40;92.90;;;;;;5043814;28;20008;-72
2022/12/21 11:10:51;;;;;;;;;;;19.30;93.30;;;;;;5052290;28;19952;-73
2022/12/21 11:13:18;;;;;;;;;;;19.20;93.60;;;;;;5054714;28;19993;-73
2022/12/21 11:16:12;;;;;;;;;;;19.20;94.10;;;;;;5051935;28;19963;-73
2022/12/21 11:18:45;;;;;;;;;;;19.20;94.20;;;;;;5051234;28;19917;-72
2022/12/21 11:21:24;;;;;;;;;;;19.20;94.40;;;;;;5035286;28;20381;-74
2022/12/21 11:23:57;;;;;;;;;;;18.20;94.40;;;;;;5035863;28;19918;-74
2022/12/21 11:26:30;;;;;;;;;;;19.30;94.60;;;;;;5036801;28;20007;-74
2022/12/21 11:29:01;;;;;;;;;;;19.20;94.60;;;;;;5033631;28;19967;-75
2022/12/21 11:31:29;;;;;;;;;;;19.60;94.90;;;;;;5035743;28;19948;-73
2022/12/21 11:33:55;;;;;;;;;;;19.20;95.20;;;;;;5037776;28;19977;-74
2022/12/21 11:36:22;;;;;;;;;;;19.20;95.20;;;;;;5049831;28;19913;-74
2022/12/21 11:38:49;;;;;;;;;;;19.20;95.30;;;;;;5039672;28;20007;-74
2022/12/21 11:41:15;;;;;;;;;;;19.20;95.30;;;;;;5034749;28;20281;-74
2022/12/21 11:43:46;;;;;;;;;;;19.10;95.20;;;;;;5048300;28;19954;-74
2022/12/21 11:46:35;;;;;;;;;;;19.10;95.70;;;;;;5034191;28;19916;-73
2022/12/21 11:49:08;;;;;;;;;;;19.10;95.80;;;;;;5036489;28;19908;-74
2022/12/21 11:51:47;;;;;;;;;;;19.10;95.60;;;;;;5034479;28;19913;-75
2022/12/21 11:54:32;;;;;;;;;;;19.10;95.70;;;;;;5034241;28;19917;-74
2022/12/21 11:57:04;;;;;;;;;;;19.10;95.70;;;;;;5047374;28;19916;-73
2022/12/21 11:59:49;;;;;;;;;;;19.10;95.90;;;;;;5055238;28;19909;-75
2022/12/21 12:02:18;;;;;;;;;;;19.20;95.90;;;;;;5055870;28;19912;-74
2022/12/21 12:05:03;;;;;;;;;;;19.20;95.80;;;;;;5052184;28;20368;-73
2022/12/21 12:07:36;;;;;;;;;;;19.20;95.80;;;;;;5055013;28;19981;-74
2022/12/21 12:10:09;;;;;;;;;;;19.20;95.50;;;;;;5036101;28;19939;-74
2022/12/21 12:12:35;;;;;;;;;;;19.10;95.30;;;;;;5034590;28;20262;-75
2022/12/21 12:15:08;;;;;;;;;;;19.10;95.60;;;;;;5034999;28;19962;-74
2022/12/21 12:17:52;;;;;;;;;;;19.10;95.50;;;;;;5043269;28;19939;-75
2022/12/21 12:20:37;;;;;;;;;;;19.10;95.60;;;;;;5049303;28;20350;-74
2022/12/21 12:23:22;;;;;;;;;;;19.10;95.80;;;;;;5042362;28;19912;-74
2022/12/21 12:25:59;;;;;;;;;;;19.10;95.50;;;;;;5031514;28;19913;-73
2022/12/21 12:28:44;;;;;;;;;;;19.00;95.70;;;;;;5034023;28;20633;-75
2022/12/21 12:31:29;;;;;;;;;;;19.10;95.80;;;;;;5035471;28;19961;-73
2022/12/21 12:34:01;;;;;;;;;;;19.10;95.60;;;;;;5032071;28;19980;-74
2022/12/21 12:36:34;;;;;;;;;;;19.10;95.80;;;;;;5034618;28;19948;-73
2022/12/21 12:39:11;;;;;;;;;;;19.20;96.10;;;;;;5032139;28;19908;-74
2022/12/21 12:41:59;;;;;;;;;;;19.20;96.00;;;;;;5050785;28;19923;-74
2022/12/21 12:44:39;;;;;;;;;;;19.20;96.20;;;;;;5035092;28;19916;-74
2022/12/21 12:47:24;;;;;;;;;;;19.10;95.60;;;;;;5054552;28;19908;-73
2022/12/21 12:50:14;;;;;;;;;;;19.00;96.20;;;;;;5045238;28;19913;-73
2022/12/21 12:52:50;;;;;;;;;;;18.90;96.40;;;;;;5041983;28;19996;-73
2022/12/21 12:55:20;;;;;;;;;;;19.00;96.40;;;;;;5049704;28;19921;-73
2022/12/21 12:57:51;;;;;;;;;;;18.90;96.60;;;;;;5038768;28;19912;-74
2022/12/21 13:00:18;;;;;;;;;;;18.90;96.50;;;;;;5042476;28;19916;-73
2022/12/21 13:03:03;;;;;;;;;;;19.00;96.60;;;;;;5033835;28;19916;-74
2022/12/21 13:05:47;;;;;;;;;;;18.90;96.70;;;;;;5054481;28;19963;-73
2022/12/21 13:08:24;;;;;;;;;;;18.90;97.00;;;;;;5053904;28;19999;-73
2022/12/21 13:10:51;;;;;;;;;;;19.00;96.90;;;;;;5043380;28;19909;-73
2022/12/21 13:13:18;;;;;;;;;;;18.90;96.80;;;;;;5046547;28;19916;-73
2022/12/21 13:16:04;;;;;;;;;;;19.00;97.20;;;;;;5048662;28;20011;-74
2022/12/21 13:18:42;;;;;;;;;;;19.00;97.30;;;;;;5042975;28;19912;-74
2022/12/21 13:21:10;;;;;;;;;;;19.00;97.40;;;;;;5040358;28;20021;-73
2022/12/21 13:23:55;;;;;;;;;;;18.90;97.50;;;;;;5043121;28;19908;-73
2022/12/21 13:26:24;;;;;;;;;;;18.90;97.80;;;;;;5043520;28;19916;-73
2022/12/21 13:28:54;;;;;;;;;;;18.80;97.90;;;;;;5035810;28;19913;-74
2022/12/21 13:31:22;;;;;;;;;;;18.80;98.00;;;;;;5035491;28;20384;-73
2022/12/21 13:33:51;;;;;;;;;;;18.80;98.00;;;;;;5033284;28;20023;-74
2022/12/21 13:36:19;;;;;;;;;;;18.80;97.90;;;;;;5034384;28;20261;-74
2022/12/21 13:38:45;;;;;;;;;;;18.80;98.00;;;;;;5035354;28;19909;-72
2022/12/21 13:41:35;;;;;;;;;;;18.70;98.00;;;;;;5045207;28;20317;-73
2022/12/21 13:44:14;;;;;;;;;;;18.70;98.10;;;;;;5052536;28;20343;-72
2022/12/21 13:46:42;;;;;;;;;;;18.70;98.20;;;;;;5048667;28;19975;-73
2022/12/21 13:49:21;;;;;;;;;;;18.70;98.40;;;;;;5033577;28;19921;-72
2022/12/21 13:52:16;;;;;;;;;;;18.70;98.60;;;;;;5038784;28;19917;-73
2022/12/21 13:54:51;;;;;;;;;;;18.70;98.60;;;;;;5052412;28;19920;-75
2022/12/21 13:57:34;;;;;;;;;;;18.60;98.60;;;;;;5052166;28;19912;-73
2022/12/21 14:00:22;;;;;;;;;;;18.60;98.60;;;;;;5041161;28;19908;-72
2022/12/21 14:02:57;;;;;;;;;;;18.50;98.60;;;;;;5034624;28;20679;-72
2022/12/21 14:05:29;;;;;;;;;;;18.50;99.00;;;;;;5054064;28;19917;-75
2022/12/21 14:08:02;;;;;;;;;;;18.50;99.30;;;;;;5049454;28;19978;-75
2022/12/21 14:10:47;;;;;;;;;;;18.40;99.40;;;;;;5037509;28;19909;-75
2022/12/21 14:13:16;;;;;;;;;;;18.40;99.40;;;;;;5035568;28;19996;-74
2022/12/21 14:15:55;;;;;;;;;;;18.40;99.50;;;;;;5038621;28;20627;-75
2022/12/21 14:18:23;;;;;;;;;;;18.30;99.50;;;;;;5051574;28;20020;-74
2022/12/21 14:20:52;;;;;;;;;;;18.30;99.80;;;;;;5038476;28;20319;-73
2022/12/21 14:23:27;;;;;;;;;;;18.30;99.90;;;;;;5035065;28;20054;-74
2022/12/21 14:25:55;;;;;;;;;;;18.30;99.90;;;;;;5037557;28;19916;-75
2022/12/21 14:28:22;;;;;;;;;;;18.20;99.90;;;;;;5041035;28;19920;-74
2022/12/21 14:30:49;;;;;;;;;;;18.20;99.90;;;;;;5039632;28;19917;-74
2022/12/21 14:33:18;;;;;;;;;;;18.20;99.90;;;;;;5035252;28;19931;-75
2022/12/21 14:35:44;;;;;;;;;;;18.10;99.90;;;;;;5038585;28;19928;-75
2022/12/21 14:38:31;;;;;;;;;;;18.10;99.90;;;;;;5047777;28;19920;-75
2022/12/21 14:40:58;;;;;;;;;;;18.10;99.90;;;;;;5057648;28;19927;-74
2022/12/21 14:43:25;;;;;;;;;;;18.00;99.90;;;;;;5053705;28;19912;-73
2022/12/21 14:45:51;;;;;;;;;;;18.00;99.90;;;;;;5057369;28;19908;-75
2022/12/21 14:48:40;;;;;;;;;;;17.90;99.90;;;;;;5049746;28;19913;-74
2022/12/21 14:51:09;;;;;;;;;;;18.00;99.90;;;;;;5035891;28;19919;-74